sensor_id;sensor_type;location;lat;lon;timestamp;P1;durP1;ratioP1;P2;durP2;ratioP2
67737;SDS011;54534;43.612;1.572;2023-03-11T00:00:58;8.00;;;2.97;;
67737;SDS011;54534;43.612;1.572;2023-03-11T00:03:24;9.03;;;3.67;;
67737;SDS011;54534;43.612;1.572;2023-03-11T00:05:51;7.17;;;2.93;;
67737;SDS011;54534;43.612;1.572;2023-03-11T00:08:19;7.40;;;3.20;;
67737;SDS011;54534;43.612;1.572;2023-03-11T00:10:47;7.60;;;3.03;;
67737;SDS011;54534;43.612;1.572;2023-03-11T00:13:16;7.13;;;3.10;;
67737;SDS011;54534;43.612;1.572;2023-03-11T00:15:43;8.93;;;3.40;;
67737;SDS011;54534;43.612;1.572;2023-03-11T00:18:10;7.80;;;2.83;;
67737;SDS011;54534;43.612;1.572;2023-03-11T00:20:37;4.87;;;2.67;;
67737;SDS011;54534;43.612;1.572;2023-03-11T00:23:04;7.07;;;3.10;;
67737;SDS011;54534;43.612;1.572;2023-03-11T00:25:32;9.40;;;3.43;;
67737;SDS011;54534;43.612;1.572;2023-03-11T00:27:59;7.73;;;3.00;;
67737;SDS011;54534;43.612;1.572;2023-03-11T00:30:25;6.17;;;3.17;;
67737;SDS011;54534;43.612;1.572;2023-03-11T00:32:52;6.00;;;3.00;;
67737;SDS011;54534;43.612;1.572;2023-03-11T00:35:20;6.43;;;2.80;;
67737;SDS011;54534;43.612;1.572;2023-03-11T00:37:53;7.37;;;2.70;;
67737;SDS011;54534;43.612;1.572;2023-03-11T00:40:19;6.93;;;2.97;;
67737;SDS011;54534;43.612;1.572;2023-03-11T00:42:46;7.03;;;2.90;;
67737;SDS011;54534;43.612;1.572;2023-03-11T00:45:13;9.47;;;3.20;;
67737;SDS011;54534;43.612;1.572;2023-03-11T00:47:39;7.80;;;2.70;;
67737;SDS011;54534;43.612;1.572;2023-03-11T00:50:06;5.97;;;2.80;;
67737;SDS011;54534;43.612;1.572;2023-03-11T00:52:33;9.70;;;3.57;;
67737;SDS011;54534;43.612;1.572;2023-03-11T00:54:59;6.23;;;2.83;;
67737;SDS011;54534;43.612;1.572;2023-03-11T00:57:24;4.87;;;2.50;;
67737;SDS011;54534;43.612;1.572;2023-03-11T00:59:53;5.40;;;3.00;;
67737;SDS011;54534;43.612;1.572;2023-03-11T01:02:18;5.00;;;2.43;;
67737;SDS011;54534;43.612;1.572;2023-03-11T01:04:44;4.83;;;2.70;;
67737;SDS011;54534;43.612;1.572;2023-03-11T01:07:09;5.80;;;2.70;;
67737;SDS011;54534;43.612;1.572;2023-03-11T01:09:34;2.53;;;1.87;;
67737;SDS011;54534;43.612;1.572;2023-03-11T01:12:00;3.63;;;2.30;;
67737;SDS011;54534;43.612;1.572;2023-03-11T01:14:25;3.53;;;2.30;;
67737;SDS011;54534;43.612;1.572;2023-03-11T01:16:51;5.30;;;2.53;;
67737;SDS011;54534;43.612;1.572;2023-03-11T01:19:17;5.67;;;2.43;;
67737;SDS011;54534;43.612;1.572;2023-03-11T01:21:43;4.47;;;2.60;;
67737;SDS011;54534;43.612;1.572;2023-03-11T01:24:08;6.70;;;2.33;;
67737;SDS011;54534;43.612;1.572;2023-03-11T01:26:34;4.50;;;2.40;;
67737;SDS011;54534;43.612;1.572;2023-03-11T01:29:00;2.43;;;2.00;;
67737;SDS011;54534;43.612;1.572;2023-03-11T01:31:25;5.10;;;2.23;;
67737;SDS011;54534;43.612;1.572;2023-03-11T01:33:51;2.37;;;2.07;;
67737;SDS011;54534;43.612;1.572;2023-03-11T01:36:16;4.03;;;2.30;;
67737;SDS011;54534;43.612;1.572;2023-03-11T01:38:41;5.60;;;2.40;;
67737;SDS011;54534;43.612;1.572;2023-03-11T01:41:07;5.40;;;2.20;;
67737;SDS011;54534;43.612;1.572;2023-03-11T01:51:23;4.53;;;2.10;;
67737;SDS011;54534;43.612;1.572;2023-03-11T01:53:52;5.27;;;2.13;;
67737;SDS011;54534;43.612;1.572;2023-03-11T01:56:20;4.20;;;2.07;;
67737;SDS011;54534;43.612;1.572;2023-03-11T01:58:47;5.07;;;2.27;;
67737;SDS011;54534;43.612;1.572;2023-03-11T02:01:16;6.68;;;2.17;;
67737;SDS011;54534;43.612;1.572;2023-03-11T02:03:41;3.60;;;2.17;;
67737;SDS011;54534;43.612;1.572;2023-03-11T02:06:11;4.63;;;2.00;;
67737;SDS011;54534;43.612;1.572;2023-03-11T02:08:41;5.40;;;2.20;;
67737;SDS011;54534;43.612;1.572;2023-03-11T02:11:08;4.97;;;2.10;;
67737;SDS011;54534;43.612;1.572;2023-03-11T02:13:39;4.83;;;2.10;;
67737;SDS011;54534;43.612;1.572;2023-03-11T02:16:08;4.07;;;1.90;;
67737;SDS011;54534;43.612;1.572;2023-03-11T02:18:33;3.03;;;2.10;;
67737;SDS011;54534;43.612;1.572;2023-03-11T02:21:05;3.83;;;1.70;;
67737;SDS011;54534;43.612;1.572;2023-03-11T02:29:34;4.63;;;1.87;;
67737;SDS011;54534;43.612;1.572;2023-03-11T02:32:02;2.53;;;1.97;;
67737;SDS011;54534;43.612;1.572;2023-03-11T02:34:31;4.32;;;1.83;;
67737;SDS011;54534;43.612;1.572;2023-03-11T02:36:59;4.67;;;1.77;;
67737;SDS011;54534;43.612;1.572;2023-03-11T02:39:29;4.17;;;1.90;;
67737;SDS011;54534;43.612;1.572;2023-03-11T02:41:54;2.00;;;1.70;;
67737;SDS011;54534;43.612;1.572;2023-03-11T02:44:19;3.60;;;2.13;;
67737;SDS011;54534;43.612;1.572;2023-03-11T02:46:45;3.40;;;1.70;;
67737;SDS011;54534;43.612;1.572;2023-03-11T02:49:10;3.30;;;1.63;;
67737;SDS011;54534;43.612;1.572;2023-03-11T02:51:37;3.27;;;1.50;;
67737;SDS011;54534;43.612;1.572;2023-03-11T02:54:03;3.63;;;2.10;;
67737;SDS011;54534;43.612;1.572;2023-03-11T02:56:29;2.40;;;1.57;;
67737;SDS011;54534;43.612;1.572;2023-03-11T02:58:55;3.73;;;1.97;;
67737;SDS011;54534;43.612;1.572;2023-03-11T03:01:21;3.57;;;1.80;;
67737;SDS011;54534;43.612;1.572;2023-03-11T03:03:46;3.50;;;1.67;;
67737;SDS011;54534;43.612;1.572;2023-03-11T03:06:12;1.87;;;1.43;;
67737;SDS011;54534;43.612;1.572;2023-03-11T03:08:37;3.53;;;1.77;;
67737;SDS011;54534;43.612;1.572;2023-03-11T03:11:03;2.37;;;1.70;;
67737;SDS011;54534;43.612;1.572;2023-03-11T03:13:29;2.30;;;1.53;;
67737;SDS011;54534;43.612;1.572;2023-03-11T03:15:56;2.80;;;1.73;;
67737;SDS011;54534;43.612;1.572;2023-03-11T03:18:22;3.47;;;1.93;;
67737;SDS011;54534;43.612;1.572;2023-03-11T03:20:49;3.77;;;1.50;;
67737;SDS011;54534;43.612;1.572;2023-03-11T03:23:14;5.67;;;2.37;;
67737;SDS011;54534;43.612;1.572;2023-03-11T03:25:41;3.60;;;1.60;;
67737;SDS011;54534;43.612;1.572;2023-03-11T03:28:07;3.23;;;1.83;;
67737;SDS011;54534;43.612;1.572;2023-03-11T03:30:33;3.10;;;1.80;;
67737;SDS011;54534;43.612;1.572;2023-03-11T03:32:59;2.47;;;1.70;;
67737;SDS011;54534;43.612;1.572;2023-03-11T03:35:25;2.17;;;1.57;;
67737;SDS011;54534;43.612;1.572;2023-03-11T03:37:51;7.03;;;2.20;;
67737;SDS011;54534;43.612;1.572;2023-03-11T03:40:16;3.67;;;1.60;;
67737;SDS011;54534;43.612;1.572;2023-03-11T03:42:42;3.33;;;1.47;;
67737;SDS011;54534;43.612;1.572;2023-03-11T03:45:08;2.37;;;1.40;;
67737;SDS011;54534;43.612;1.572;2023-03-11T03:47:34;1.80;;;1.20;;
67737;SDS011;54534;43.612;1.572;2023-03-11T03:50:01;3.20;;;1.70;;
67737;SDS011;54534;43.612;1.572;2023-03-11T03:52:31;1.73;;;1.40;;
67737;SDS011;54534;43.612;1.572;2023-03-11T03:54:56;2.77;;;1.70;;
67737;SDS011;54534;43.612;1.572;2023-03-11T03:57:22;4.10;;;1.53;;
67737;SDS011;54534;43.612;1.572;2023-03-11T03:59:47;3.23;;;1.30;;
67737;SDS011;54534;43.612;1.572;2023-03-11T04:02:12;1.93;;;1.20;;
67737;SDS011;54534;43.612;1.572;2023-03-11T04:04:38;3.43;;;1.60;;
67737;SDS011;54534;43.612;1.572;2023-03-11T04:07:04;5.67;;;2.30;;
67737;SDS011;54534;43.612;1.572;2023-03-11T04:09:30;2.53;;;1.50;;
67737;SDS011;54534;43.612;1.572;2023-03-11T04:11:56;2.90;;;1.33;;
67737;SDS011;54534;43.612;1.572;2023-03-11T04:14:21;3.87;;;1.83;;
67737;SDS011;54534;43.612;1.572;2023-03-11T04:16:46;3.33;;;1.53;;
67737;SDS011;54534;43.612;1.572;2023-03-11T04:19:12;2.63;;;1.30;;
67737;SDS011;54534;43.612;1.572;2023-03-11T04:21:37;2.27;;;1.10;;
67737;SDS011;54534;43.612;1.572;2023-03-11T04:24:03;1.93;;;1.47;;
67737;SDS011;54534;43.612;1.572;2023-03-11T04:26:28;3.13;;;1.53;;
67737;SDS011;54534;43.612;1.572;2023-03-11T04:28:54;3.57;;;1.70;;
67737;SDS011;54534;43.612;1.572;2023-03-11T04:31:19;2.17;;;1.27;;
67737;SDS011;54534;43.612;1.572;2023-03-11T04:33:45;3.40;;;1.53;;
67737;SDS011;54534;43.612;1.572;2023-03-11T04:36:11;3.07;;;1.57;;
67737;SDS011;54534;43.612;1.572;2023-03-11T04:38:36;2.63;;;1.60;;
67737;SDS011;54534;43.612;1.572;2023-03-11T04:41:05;3.00;;;1.43;;
67737;SDS011;54534;43.612;1.572;2023-03-11T04:43:31;3.20;;;1.60;;
67737;SDS011;54534;43.612;1.572;2023-03-11T04:45:58;4.60;;;1.90;;
67737;SDS011;54534;43.612;1.572;2023-03-11T04:48:23;1.97;;;1.30;;
67737;SDS011;54534;43.612;1.572;2023-03-11T04:50:51;2.83;;;2.03;;
67737;SDS011;54534;43.612;1.572;2023-03-11T04:53:16;4.63;;;1.57;;
67737;SDS011;54534;43.612;1.572;2023-03-11T04:55:42;1.77;;;1.30;;
67737;SDS011;54534;43.612;1.572;2023-03-11T04:58:07;3.40;;;1.30;;
67737;SDS011;54534;43.612;1.572;2023-03-11T05:00:33;2.17;;;1.30;;
67737;SDS011;54534;43.612;1.572;2023-03-11T05:02:58;2.27;;;1.40;;
67737;SDS011;54534;43.612;1.572;2023-03-11T05:05:24;2.83;;;1.17;;
67737;SDS011;54534;43.612;1.572;2023-03-11T05:07:49;1.87;;;1.23;;
67737;SDS011;54534;43.612;1.572;2023-03-11T05:10:15;3.43;;;1.23;;
67737;SDS011;54534;43.612;1.572;2023-03-11T05:12:46;2.40;;;1.20;;
67737;SDS011;54534;43.612;1.572;2023-03-11T05:15:12;1.77;;;1.20;;
67737;SDS011;54534;43.612;1.572;2023-03-11T05:17:38;3.07;;;1.20;;
67737;SDS011;54534;43.612;1.572;2023-03-11T05:20:03;1.60;;;1.20;;
67737;SDS011;54534;43.612;1.572;2023-03-11T05:22:31;1.67;;;1.27;;
67737;SDS011;54534;43.612;1.572;2023-03-11T05:24:57;2.30;;;1.20;;
67737;SDS011;54534;43.612;1.572;2023-03-11T05:27:22;1.67;;;1.20;;
67737;SDS011;54534;43.612;1.572;2023-03-11T05:29:48;2.17;;;1.33;;
67737;SDS011;54534;43.612;1.572;2023-03-11T05:32:13;4.53;;;2.07;;
67737;SDS011;54534;43.612;1.572;2023-03-11T05:34:39;2.13;;;1.20;;
67737;SDS011;54534;43.612;1.572;2023-03-11T05:37:04;2.03;;;1.27;;
67737;SDS011;54534;43.612;1.572;2023-03-11T05:39:30;3.70;;;1.67;;
67737;SDS011;54534;43.612;1.572;2023-03-11T05:41:56;2.83;;;1.40;;
67737;SDS011;54534;43.612;1.572;2023-03-11T05:44:21;3.37;;;1.53;;
67737;SDS011;54534;43.612;1.572;2023-03-11T05:46:47;2.57;;;1.27;;
67737;SDS011;54534;43.612;1.572;2023-03-11T05:49:13;1.53;;;1.27;;
67737;SDS011;54534;43.612;1.572;2023-03-11T05:51:38;3.47;;;1.50;;
67737;SDS011;54534;43.612;1.572;2023-03-11T05:54:04;2.03;;;1.20;;
67737;SDS011;54534;43.612;1.572;2023-03-11T05:56:35;1.57;;;1.00;;
67737;SDS011;54534;43.612;1.572;2023-03-11T05:59:01;1.37;;;1.23;;
67737;SDS011;54534;43.612;1.572;2023-03-11T06:01:26;2.17;;;1.27;;
67737;SDS011;54534;43.612;1.572;2023-03-11T06:03:52;3.03;;;1.10;;
67737;SDS011;54534;43.612;1.572;2023-03-11T06:06:17;1.47;;;1.27;;
67737;SDS011;54534;43.612;1.572;2023-03-11T06:08:42;4.90;;;1.67;;
67737;SDS011;54534;43.612;1.572;2023-03-11T06:11:13;4.23;;;1.30;;
67737;SDS011;54534;43.612;1.572;2023-03-11T06:13:39;2.07;;;1.23;;
67737;SDS011;54534;43.612;1.572;2023-03-11T06:16:05;2.53;;;1.30;;
67737;SDS011;54534;43.612;1.572;2023-03-11T06:18:31;1.70;;;1.00;;
67737;SDS011;54534;43.612;1.572;2023-03-11T06:20:57;2.60;;;1.30;;
67737;SDS011;54534;43.612;1.572;2023-03-11T06:23:23;2.47;;;1.30;;
67737;SDS011;54534;43.612;1.572;2023-03-11T06:25:59;2.60;;;1.30;;
67737;SDS011;54534;43.612;1.572;2023-03-11T06:28:26;2.40;;;1.10;;
67737;SDS011;54534;43.612;1.572;2023-03-11T06:30:53;3.53;;;1.37;;
67737;SDS011;54534;43.612;1.572;2023-03-11T06:33:21;2.10;;;1.03;;
67737;SDS011;54534;43.612;1.572;2023-03-11T06:35:57;3.37;;;1.53;;
67737;SDS011;54534;43.612;1.572;2023-03-11T06:38:23;1.77;;;1.00;;
67737;SDS011;54534;43.612;1.572;2023-03-11T06:40:49;2.70;;;1.00;;
67737;SDS011;54534;43.612;1.572;2023-03-11T06:43:14;2.07;;;1.43;;
67737;SDS011;54534;43.612;1.572;2023-03-11T06:45:40;2.20;;;1.10;;
67737;SDS011;54534;43.612;1.572;2023-03-11T06:48:05;3.40;;;1.63;;
67737;SDS011;54534;43.612;1.572;2023-03-11T06:50:30;2.83;;;1.50;;
67737;SDS011;54534;43.612;1.572;2023-03-11T06:52:56;3.17;;;1.47;;
67737;SDS011;54534;43.612;1.572;2023-03-11T06:55:22;1.20;;;1.10;;
67737;SDS011;54534;43.612;1.572;2023-03-11T06:57:48;3.27;;;1.27;;
67737;SDS011;54534;43.612;1.572;2023-03-11T07:00:13;3.10;;;1.10;;
67737;SDS011;54534;43.612;1.572;2023-03-11T07:02:40;8.47;;;1.67;;
67737;SDS011;54534;43.612;1.572;2023-03-11T07:05:06;20.97;;;1.93;;
67737;SDS011;54534;43.612;1.572;2023-03-11T07:07:31;23.37;;;1.77;;
67737;SDS011;54534;43.612;1.572;2023-03-11T07:09:57;17.67;;;2.20;;
67737;SDS011;54534;43.612;1.572;2023-03-11T07:12:22;6.63;;;1.50;;
67737;SDS011;54534;43.612;1.572;2023-03-11T07:14:53;5.27;;;1.90;;
67737;SDS011;54534;43.612;1.572;2023-03-11T07:17:22;4.60;;;1.80;;
67737;SDS011;54534;43.612;1.572;2023-03-11T07:19:48;4.20;;;1.80;;
67737;SDS011;54534;43.612;1.572;2023-03-11T07:22:15;5.37;;;1.80;;
67737;SDS011;54534;43.612;1.572;2023-03-11T07:24:40;3.60;;;1.57;;
67737;SDS011;54534;43.612;1.572;2023-03-11T07:27:08;3.43;;;1.73;;
67737;SDS011;54534;43.612;1.572;2023-03-11T07:29:34;4.77;;;1.63;;
67737;SDS011;54534;43.612;1.572;2023-03-11T07:31:59;5.10;;;1.83;;
67737;SDS011;54534;43.612;1.572;2023-03-11T07:34:24;13.37;;;1.90;;
67737;SDS011;54534;43.612;1.572;2023-03-11T07:36:50;7.03;;;2.07;;
67737;SDS011;54534;43.612;1.572;2023-03-11T07:39:16;9.53;;;2.07;;
67737;SDS011;54534;43.612;1.572;2023-03-11T07:41:42;4.77;;;1.97;;
67737;SDS011;54534;43.612;1.572;2023-03-11T07:44:12;4.73;;;2.00;;
67737;SDS011;54534;43.612;1.572;2023-03-11T07:46:38;5.60;;;2.00;;
67737;SDS011;54534;43.612;1.572;2023-03-11T07:49:04;8.83;;;1.40;;
67737;SDS011;54534;43.612;1.572;2023-03-11T07:51:30;7.47;;;1.90;;
67737;SDS011;54534;43.612;1.572;2023-03-11T07:53:57;6.60;;;1.70;;
67737;SDS011;54534;43.612;1.572;2023-03-11T07:56:24;9.00;;;1.93;;
67737;SDS011;54534;43.612;1.572;2023-03-11T07:58:50;4.87;;;1.90;;
67737;SDS011;54534;43.612;1.572;2023-03-11T08:01:17;6.43;;;1.90;;
67737;SDS011;54534;43.612;1.572;2023-03-11T08:03:45;4.17;;;1.50;;
67737;SDS011;54534;43.612;1.572;2023-03-11T08:08:38;4.73;;;1.70;;
67737;SDS011;54534;43.612;1.572;2023-03-11T08:11:03;4.47;;;2.07;;
67737;SDS011;54534;43.612;1.572;2023-03-11T08:13:29;5.03;;;1.80;;
67737;SDS011;54534;43.612;1.572;2023-03-11T08:15:54;4.83;;;2.03;;
67737;SDS011;54534;43.612;1.572;2023-03-11T08:18:19;6.63;;;1.87;;
67737;SDS011;54534;43.612;1.572;2023-03-11T08:20:45;7.30;;;2.30;;
67737;SDS011;54534;43.612;1.572;2023-03-11T08:23:10;16.63;;;2.20;;
67737;SDS011;54534;43.612;1.572;2023-03-11T08:25:39;15.47;;;2.60;;
67737;SDS011;54534;43.612;1.572;2023-03-11T08:28:05;27.27;;;2.77;;
67737;SDS011;54534;43.612;1.572;2023-03-11T08:30:31;11.63;;;2.30;;
67737;SDS011;54534;43.612;1.572;2023-03-11T08:32:57;24.20;;;3.07;;
67737;SDS011;54534;43.612;1.572;2023-03-11T08:35:23;30.70;;;2.60;;
67737;SDS011;54534;43.612;1.572;2023-03-11T08:37:50;25.80;;;3.57;;
67737;SDS011;54534;43.612;1.572;2023-03-11T08:40:15;34.53;;;3.60;;
67737;SDS011;54534;43.612;1.572;2023-03-11T08:42:40;34.77;;;3.57;;
67737;SDS011;54534;43.612;1.572;2023-03-11T08:45:06;41.57;;;4.90;;
67737;SDS011;54534;43.612;1.572;2023-03-11T08:47:33;42.33;;;4.80;;
67737;SDS011;54534;43.612;1.572;2023-03-11T08:50:00;40.97;;;4.13;;
67737;SDS011;54534;43.612;1.572;2023-03-11T08:52:26;42.13;;;4.80;;
67737;SDS011;54534;43.612;1.572;2023-03-11T08:54:51;41.27;;;4.80;;
67737;SDS011;54534;43.612;1.572;2023-03-11T08:57:16;38.30;;;4.00;;
67737;SDS011;54534;43.612;1.572;2023-03-11T08:59:42;30.53;;;4.87;;
67737;SDS011;54534;43.612;1.572;2023-03-11T09:02:08;44.10;;;5.70;;
67737;SDS011;54534;43.612;1.572;2023-03-11T09:04:34;40.73;;;5.03;;
67737;SDS011;54534;43.612;1.572;2023-03-11T09:06:59;33.37;;;4.93;;
67737;SDS011;54534;43.612;1.572;2023-03-11T09:09:25;31.13;;;3.80;;
67737;SDS011;54534;43.612;1.572;2023-03-11T09:11:50;28.63;;;3.40;;
67737;SDS011;54534;43.612;1.572;2023-03-11T09:14:16;25.07;;;3.97;;
67737;SDS011;54534;43.612;1.572;2023-03-11T09:16:41;32.87;;;3.80;;
67737;SDS011;54534;43.612;1.572;2023-03-11T09:19:07;33.57;;;5.03;;
67737;SDS011;54534;43.612;1.572;2023-03-11T09:21:33;21.53;;;3.17;;
67737;SDS011;54534;43.612;1.572;2023-03-11T09:23:59;28.77;;;3.50;;
67737;SDS011;54534;43.612;1.572;2023-03-11T09:26:25;27.87;;;3.93;;
67737;SDS011;54534;43.612;1.572;2023-03-11T09:28:51;22.57;;;4.13;;
67737;SDS011;54534;43.612;1.572;2023-03-11T09:31:16;19.50;;;3.50;;
67737;SDS011;54534;43.612;1.572;2023-03-11T09:33:42;24.07;;;3.13;;
67737;SDS011;54534;43.612;1.572;2023-03-11T09:36:09;33.53;;;5.33;;
67737;SDS011;54534;43.612;1.572;2023-03-11T09:38:37;22.33;;;3.23;;
67737;SDS011;54534;43.612;1.572;2023-03-11T09:44:11;33.37;;;3.80;;
67737;SDS011;54534;43.612;1.572;2023-03-11T09:49:27;29.30;;;3.40;;
67737;SDS011;54534;43.612;1.572;2023-03-11T09:52:14;25.23;;;3.67;;
67737;SDS011;54534;43.612;1.572;2023-03-11T09:54:41;33.03;;;3.87;;
67737;SDS011;54534;43.612;1.572;2023-03-11T09:57:29;28.67;;;4.33;;
67737;SDS011;54534;43.612;1.572;2023-03-11T09:59:57;34.17;;;5.23;;
67737;SDS011;54534;43.612;1.572;2023-03-11T10:02:26;33.67;;;4.82;;
67737;SDS011;54534;43.612;1.572;2023-03-11T10:04:59;25.07;;;4.23;;
67737;SDS011;54534;43.612;1.572;2023-03-11T10:07:41;25.63;;;4.50;;
67737;SDS011;54534;43.612;1.572;2023-03-11T10:10:14;20.20;;;4.73;;
67737;SDS011;54534;43.612;1.572;2023-03-11T10:12:43;27.90;;;5.03;;
67737;SDS011;54534;43.612;1.572;2023-03-11T10:18:06;51.70;;;5.43;;
67737;SDS011;54534;43.612;1.572;2023-03-11T10:21:01;42.17;;;5.23;;
67737;SDS011;54534;43.612;1.572;2023-03-11T10:26:19;41.07;;;4.70;;
67737;SDS011;54534;43.612;1.572;2023-03-11T10:28:53;42.57;;;4.97;;
67737;SDS011;54534;43.612;1.572;2023-03-11T10:31:29;38.57;;;6.73;;
67737;SDS011;54534;43.612;1.572;2023-03-11T10:34:04;43.70;;;5.00;;
67737;SDS011;54534;43.612;1.572;2023-03-11T10:39:23;31.00;;;4.83;;
67737;SDS011;54534;43.612;1.572;2023-03-11T10:44:31;28.73;;;4.93;;
67737;SDS011;54534;43.612;1.572;2023-03-11T10:46:58;27.30;;;5.07;;
67737;SDS011;54534;43.612;1.572;2023-03-11T10:49:25;26.60;;;5.03;;
67737;SDS011;54534;43.612;1.572;2023-03-11T10:51:51;28.60;;;4.47;;
67737;SDS011;54534;43.612;1.572;2023-03-11T10:54:22;26.93;;;5.10;;
67737;SDS011;54534;43.612;1.572;2023-03-11T10:56:49;40.07;;;4.73;;
67737;SDS011;54534;43.612;1.572;2023-03-11T11:02:00;29.07;;;3.70;;
67737;SDS011;54534;43.612;1.572;2023-03-11T11:04:46;27.87;;;4.37;;
67737;SDS011;54534;43.612;1.572;2023-03-11T11:07:28;21.17;;;4.47;;
67737;SDS011;54534;43.612;1.572;2023-03-11T11:17:53;39.13;;;4.23;;
67737;SDS011;54534;43.612;1.572;2023-03-11T11:20:22;38.10;;;5.53;;
67737;SDS011;54534;43.612;1.572;2023-03-11T11:22:53;46.63;;;5.27;;
67737;SDS011;54534;43.612;1.572;2023-03-11T11:25:27;45.23;;;5.23;;
67737;SDS011;54534;43.612;1.572;2023-03-11T11:27:54;39.27;;;5.03;;
67737;SDS011;54534;43.612;1.572;2023-03-11T11:30:25;65.50;;;6.80;;
67737;SDS011;54534;43.612;1.572;2023-03-11T11:32:52;66.63;;;6.13;;
67737;SDS011;54534;43.612;1.572;2023-03-11T11:35:20;46.07;;;5.97;;
67737;SDS011;54534;43.612;1.572;2023-03-11T11:37:50;62.27;;;6.13;;
67737;SDS011;54534;43.612;1.572;2023-03-11T11:40:25;52.63;;;6.70;;
67737;SDS011;54534;43.612;1.572;2023-03-11T11:42:54;44.50;;;6.17;;
67737;SDS011;54534;43.612;1.572;2023-03-11T11:45:28;61.85;;;6.35;;
67737;SDS011;54534;43.612;1.572;2023-03-11T11:47:55;40.63;;;5.30;;
67737;SDS011;54534;43.612;1.572;2023-03-11T11:50:28;46.80;;;5.53;;
67737;SDS011;54534;43.612;1.572;2023-03-11T11:53:22;45.90;;;5.03;;
67737;SDS011;54534;43.612;1.572;2023-03-11T11:55:59;36.70;;;3.97;;
67737;SDS011;54534;43.612;1.572;2023-03-11T11:58:25;28.90;;;4.10;;
67737;SDS011;54534;43.612;1.572;2023-03-11T12:06:19;39.70;;;5.10;;
67737;SDS011;54534;43.612;1.572;2023-03-11T12:26:38;83.30;;;6.17;;
67737;SDS011;54534;43.612;1.572;2023-03-11T12:29:20;69.85;;;6.20;;
67737;SDS011;54534;43.612;1.572;2023-03-11T12:31:54;42.13;;;5.63;;
67737;SDS011;54534;43.612;1.572;2023-03-11T12:34:21;37.10;;;4.57;;
67737;SDS011;54534;43.612;1.572;2023-03-11T12:36:48;39.13;;;5.07;;
67737;SDS011;54534;43.612;1.572;2023-03-11T12:39:36;30.93;;;3.57;;
67737;SDS011;54534;43.612;1.572;2023-03-11T12:44:41;25.63;;;3.38;;
67737;SDS011;54534;43.612;1.572;2023-03-11T12:49:36;24.33;;;3.40;;
67737;SDS011;54534;43.612;1.572;2023-03-11T12:54:36;23.87;;;2.77;;
67737;SDS011;54534;43.612;1.572;2023-03-11T13:05:25;17.87;;;2.13;;
67737;SDS011;54534;43.612;1.572;2023-03-11T13:08:14;14.17;;;2.30;;
67737;SDS011;54534;43.612;1.572;2023-03-11T13:13:22;18.27;;;2.33;;
67737;SDS011;54534;43.612;1.572;2023-03-11T13:15:54;12.60;;;2.30;;
67737;SDS011;54534;43.612;1.572;2023-03-11T13:18:24;13.90;;;1.87;;
67737;SDS011;54534;43.612;1.572;2023-03-11T13:21:00;14.37;;;2.20;;
67737;SDS011;54534;43.612;1.572;2023-03-11T13:26:09;14.93;;;2.03;;
67737;SDS011;54534;43.612;1.572;2023-03-11T13:28:47;10.27;;;2.77;;
67737;SDS011;54534;43.612;1.572;2023-03-11T13:34:11;17.90;;;2.03;;
67737;SDS011;54534;43.612;1.572;2023-03-11T13:39:44;11.93;;;2.20;;
67737;SDS011;54534;43.612;1.572;2023-03-11T13:42:32;12.50;;;2.13;;
67737;SDS011;54534;43.612;1.572;2023-03-11T13:45:01;8.67;;;2.10;;
67737;SDS011;54534;43.612;1.572;2023-03-11T13:47:29;12.03;;;1.90;;
67737;SDS011;54534;43.612;1.572;2023-03-11T13:49:59;11.73;;;1.90;;
67737;SDS011;54534;43.612;1.572;2023-03-11T13:55:21;11.70;;;2.43;;
67737;SDS011;54534;43.612;1.572;2023-03-11T13:57:53;11.00;;;1.60;;
67737;SDS011;54534;43.612;1.572;2023-03-11T14:00:24;19.27;;;4.27;;
67737;SDS011;54534;43.612;1.572;2023-03-11T14:03:00;13.30;;;3.40;;
67737;SDS011;54534;43.612;1.572;2023-03-11T14:05:31;13.50;;;3.40;;
67737;SDS011;54534;43.612;1.572;2023-03-11T14:13:26;24.23;;;9.13;;
67737;SDS011;54534;43.612;1.572;2023-03-11T14:18:35;64.27;;;11.30;;
67737;SDS011;54534;43.612;1.572;2023-03-11T14:21:02;33.30;;;10.27;;
67737;SDS011;54534;43.612;1.572;2023-03-11T14:23:32;32.40;;;10.03;;
67737;SDS011;54534;43.612;1.572;2023-03-11T14:26:04;33.20;;;9.47;;
67737;SDS011;54534;43.612;1.572;2023-03-11T14:28:33;35.40;;;9.77;;
67737;SDS011;54534;43.612;1.572;2023-03-11T14:31:03;30.77;;;9.60;;
67737;SDS011;54534;43.612;1.572;2023-03-11T14:33:29;41.63;;;10.97;;
67737;SDS011;54534;43.612;1.572;2023-03-11T14:35:56;45.67;;;9.20;;
67737;SDS011;54534;43.612;1.572;2023-03-11T14:38:24;37.43;;;9.67;;
67737;SDS011;54534;43.612;1.572;2023-03-11T14:40:56;36.30;;;9.90;;
67737;SDS011;54534;43.612;1.572;2023-03-11T14:43:23;46.80;;;10.57;;
67737;SDS011;54534;43.612;1.572;2023-03-11T14:45:50;41.73;;;9.90;;
67737;SDS011;54534;43.612;1.572;2023-03-11T14:50:54;58.73;;;12.00;;
67737;SDS011;54534;43.612;1.572;2023-03-11T14:53:42;63.22;;;11.13;;
67737;SDS011;54534;43.612;1.572;2023-03-11T14:56:13;49.17;;;10.30;;
67737;SDS011;54534;43.612;1.572;2023-03-11T14:58:46;55.63;;;9.87;;
67737;SDS011;54534;43.612;1.572;2023-03-11T15:01:16;52.77;;;11.10;;
67737;SDS011;54534;43.612;1.572;2023-03-11T15:03:47;45.87;;;10.10;;
67737;SDS011;54534;43.612;1.572;2023-03-11T15:06:17;55.03;;;9.80;;
67737;SDS011;54534;43.612;1.572;2023-03-11T15:08:47;62.97;;;9.13;;
67737;SDS011;54534;43.612;1.572;2023-03-11T15:11:17;52.22;;;9.35;;
67737;SDS011;54534;43.612;1.572;2023-03-11T15:13:45;42.17;;;9.23;;
67737;SDS011;54534;43.612;1.572;2023-03-11T15:16:33;48.35;;;9.35;;
67737;SDS011;54534;43.612;1.572;2023-03-11T15:19:01;47.57;;;10.23;;
67737;SDS011;54534;43.612;1.572;2023-03-11T15:21:54;55.37;;;8.87;;
67737;SDS011;54534;43.612;1.572;2023-03-11T15:24:26;59.13;;;9.18;;
67737;SDS011;54534;43.612;1.572;2023-03-11T15:26:57;48.33;;;7.97;;
67737;SDS011;54534;43.612;1.572;2023-03-11T15:29:26;66.27;;;10.03;;
67737;SDS011;54534;43.612;1.572;2023-03-11T15:31:52;54.80;;;9.20;;
67737;SDS011;54534;43.612;1.572;2023-03-11T15:39:16;38.43;;;8.13;;
67737;SDS011;54534;43.612;1.572;2023-03-11T15:41:46;51.63;;;8.93;;
67737;SDS011;54534;43.612;1.572;2023-03-11T15:46:49;73.03;;;9.43;;
67737;SDS011;54534;43.612;1.572;2023-03-11T15:49:14;61.87;;;8.43;;
67737;SDS011;54534;43.612;1.572;2023-03-11T15:51:40;55.67;;;7.77;;
67737;SDS011;54534;43.612;1.572;2023-03-11T15:54:08;60.00;;;8.43;;
67737;SDS011;54534;43.612;1.572;2023-03-11T15:56:33;59.97;;;9.47;;
67737;SDS011;54534;43.612;1.572;2023-03-11T15:58:59;51.47;;;8.67;;
67737;SDS011;54534;43.612;1.572;2023-03-11T16:01:25;59.07;;;9.03;;
67737;SDS011;54534;43.612;1.572;2023-03-11T16:03:55;69.43;;;8.27;;
67737;SDS011;54534;43.612;1.572;2023-03-11T16:06:21;52.97;;;7.53;;
67737;SDS011;54534;43.612;1.572;2023-03-11T16:08:47;56.10;;;7.40;;
67737;SDS011;54534;43.612;1.572;2023-03-11T16:11:13;70.30;;;8.80;;
67737;SDS011;54534;43.612;1.572;2023-03-11T16:13:39;60.17;;;8.97;;
67737;SDS011;54534;43.612;1.572;2023-03-11T16:16:05;55.17;;;9.33;;
67737;SDS011;54534;43.612;1.572;2023-03-11T16:18:31;58.07;;;7.63;;
67737;SDS011;54534;43.612;1.572;2023-03-11T16:20:58;54.97;;;7.77;;
67737;SDS011;54534;43.612;1.572;2023-03-11T16:23:24;68.67;;;8.27;;
67737;SDS011;54534;43.612;1.572;2023-03-11T16:25:51;63.10;;;8.20;;
67737;SDS011;54534;43.612;1.572;2023-03-11T16:28:21;59.33;;;9.13;;
67737;SDS011;54534;43.612;1.572;2023-03-11T16:30:46;51.00;;;6.57;;
67737;SDS011;54534;43.612;1.572;2023-03-11T16:33:14;43.83;;;8.40;;
67737;SDS011;54534;43.612;1.572;2023-03-11T16:35:39;53.43;;;8.73;;
67737;SDS011;54534;43.612;1.572;2023-03-11T16:38:05;66.87;;;7.53;;
67737;SDS011;54534;43.612;1.572;2023-03-11T16:40:32;63.03;;;8.00;;